Texas Shootout - HAND INVENTORY

Station: HAND INVENTORY - T Race

Distance: 1 Miles

Release: 10-Jul-2017 07:30

Weather Release:    Arrival:

Wind at Release:     Wind at Arrival:

Temp at Release: °    Temp at Arrival: °

Lofts: 162

Birds: 1023

Clocked: 984

Good Luck to Everyone!
Drops Pos Breeder Pigeon Name Color Sex Ent Arrival Speed To Win Eligible
901 Bryan Maier - PA 7278-IF17-DVC BC C 4 13:45:42.88 4.684 05:40:50 Yes
901 Bionic Loft - LA 4796-AU17-TEX BB C 4 13:45:44.80 4.684 05:40:50 Yes
903 Shallow Pockets - TX 0084-AU17-SHAL RC C 6 13:46:09.19 4.679 05:41:14 Yes
904 New Orleans Boys 2 - LA 0343-AU17-MET DC H 8 13:46:12.38 4.678 05:41:19 Yes
905 Sandstrom Brothers Loft - MN 0810-AU17-SBL BCPD H 8 13:46:37.47 4.673 05:41:43 Yes
906 Y Mtn Loft - TN 0162-AU17-ARPU BB C 6 13:46:41.81 4.672 05:41:48 Yes
907 Drama Queen Loft - TX 1276-AU17-GCI BC C 5 13:46:57.38 4.669 05:42:03 Died
908 Charlie Barbiere - NJ 1923-IF17-BSC BB H 4 13:47:00.80 4.668 05:42:08 Yes
909 Baudy Loft - LA 1301-AU17-CRSO SLT H 4 13:47:24.63 4.663 05:42:32 Yes
910 Skylinerpl.Com - UT 0966-AU17-UVI BC H 5 13:47:29.61 4.662 05:42:37 Yes
911 Chen Loft - PA 0129-AU17-TFC BBWF C 9 13:47:48.16 4.659 05:42:51 Yes
912 Champ Camp - IN 0220-AU17-CAMP BB H 14 13:47:58.44 4.656 05:43:06 Yes
913 Racine - WI 0591-AU17-RAC BB H 6 13:48:11.66 4.654 05:43:16 Yes
914 Flying D / Matt Mitchell - TX 0195-AU17-FLYD BB H 5 13:48:27.44 4.650 05:43:35 Yes
915 Zhenyuan Guo - SC 0682-AU17-GUO BC H 7 13:48:57.05 4.644 05:44:04 Yes
916 Baldwin / Tilson - NC 7123-AU17-TNTL BB H 3 13:52:55.24 4.596 05:48:02 Yes
917 Lee Family Loft - MS 2929-AU17-LEE MLY C 1 13:53:04.20 4.594 05:48:12 Yes
918 Baldwin / Tilson - NC 7122-AU17-TNTL BB H 4 13:53:20.08 4.591 05:48:27 Yes
918 Y Mtn Loft - TN 0692-AU17-GUO BB H 7 13:53:22.00 4.591 05:48:27 Yes
920 Hillbilly Loft - TX 17658-AU17-AA MIL C 8 13:53:52.19 4.585 05:48:57 Yes
921 Quest Syndicate - TX 16118-AU17-QS BWFP H 5 13:54:06.67 4.582 05:49:12 Yes
922 Holleys Silver Star - TX 0956-AU17-DEN BB C 13 13:54:30.50 4.577 05:49:37 Died
923 Yendez Loft - TX 0096-AU17-YEND BCSP H 6 13:54:42.80 4.575 05:49:47 Yes
924 - 0756-AU17-GCI 3 13:54:53.56 4.573 05:49:58
925 Tulsa Racers - OK 0776-AU17-TULS BBWF H 4 13:55:05.17 4.570 05:50:13 Yes
925 Nemeth Loft - CA 8783-AU17-BON BBWF H 1 13:55:06.27 4.570 05:50:13 Yes
927 Yong Bi - TX 59035-AU17-ARPU BB C 4 13:55:27.03 4.566 05:50:33 Yes
928 Hillbilly Loft - TX 17617-AU17-AA BB H 9 13:55:54.31 4.561 05:50:58 Yes
929 Flying D Loft - TX 0339-AU17-FLYD BC H 6 13:55:55.89 4.560 05:51:03 Yes
930 Yong Bi - TX 59036-AU17-ARPU BC H 5 13:56:18.38 4.556 05:51:24 Yes
931 Scorpion Loft - TX 14772-MX17-CNU BB H 5 13:56:29.41 4.554 05:51:34 Yes
932 Neighbor Hood Bullies - TX 72241-AU17-ARPU BB C 11 13:56:46.41 4.550 05:51:54 Yes
932 Lee Family Loft - MS 2930-AU17-LEE SIL C 2 13:56:48.42 4.550 05:51:54 Yes
934 Dream Team - VT 0788-AU17-JCZL GRIZ H 12 13:57:13.34 4.545 05:52:20 Yes
935 - 17612-AU17-AA 10 13:57:23.74 4.543 05:52:30
936 Dream Union - DC 0185-AU17-ARPU BB H 6 13:57:37.06 4.541 05:52:40 Yes
937 Little Reata Loft - TX 17358-AU17-JETT BCWF C 10 13:57:44.05 4.539 05:52:51 Yes
938 Highland Loft - NY 0742-AU17-LFO BB C 3 13:57:59.56 4.536 05:53:06 Yes
939 Black Magic Loft - TX 0332-AU17-HCF BB H 2 13:58:14.00 4.533 05:53:21 Yes
940 Zhenyuan Guo - SC 70758-AU17-ARPU BB H 8 13:58:23.92 4.531 05:53:32 Yes
941 Hutchins Loft - TX 16087-AU17-QS BB H 6 13:58:40.88 4.528 05:53:47 Yes
942 Lee Family Loft - MS 2909-AU17-LEE BBPD H 3 13:58:51.00 4.526 05:53:57 Yes
943 Nemeth Loft - CA 8779-AU17-BON BCWF H 2 13:59:04.47 4.524 05:54:08 Yes
944 Nemeth Loft - CA 8784-AU17-BON BB H 3 13:59:20.49 4.520 05:54:28 Yes
945 Holleys Silver Star - TX 0934-AU17-DEN BC C 14 13:59:32.03 4.518 05:54:39 Yes
946 Tulsa Racers - OK 1500-AU17-REED SIL C 5 13:59:47.99 4.515 05:54:54 Yes
947 Si Se Puede Farm - TX 32250-AU17-AA BBWF H 5 14:00:08.44 4.511 05:55:15 Yes
948 Highland Loft - NY 17069-AU17-DZ BC C 4 14:00:13.91 4.510 05:55:20 Yes
949 Baldwin / Tilson - NC 7220-AU17-TNTL BBWF H 5 14:00:37.58 4.506 05:55:41 Yes
950 West Wing Syndicate - TX 1159-AU17-WWC BB C 7 14:00:43.75 4.504 05:55:51 Died
951 Sky King Loft - TX 16114-AU17-QS BC H 5 14:01:11.27 4.499 05:56:17 Yes
952 Highland Loft - NY 17084-AU17-DZ BC H 5 14:01:27.00 4.496 05:56:33 Yes
953 Zheng Loft - FL 0117-AU17-LIN BB H 5 14:01:55.14 4.491 05:56:59 Yes
954 Lee Family Loft - MS 2935-AU17-LEE MLY C 4 14:02:19.25 4.486 05:57:25 Yes
955 Black Magic Loft - TX 0330-AU17-HCF BB C 3 14:02:31.56 4.484 05:57:36 Yes
956 Dream Team - VT 0670-AU17-JCZL BB H 13 14:03:05.41 4.477 05:58:13 Yes
957 Lee Family Loft - MS 2936-AU17-LEE BB H 5 14:03:23.00 4.474 05:58:29 Yes
958 Nemeth Loft - CA 8778-AU17-BON BCWF C 4 14:03:40.94 4.471 05:58:44 Died
959 Highland Loft - NY 17081-AU17-DZ BB C 6 14:03:55.92 4.468 05:59:00 Yes
960 Nemeth Loft - CA 8769-AU17-BON BC H 5 14:04:16.72 4.464 05:59:21 Yes
961 Baudy Loft - LA 1326-AU17-CRSO BC H 5 14:17:39.31 4.317 06:12:47 Died
962 - 34105-AU17-AA 5 14:17:44.34 4.316 06:12:53
963 Relax & Barger - CA 71998-AU17-MAN BB H 6 14:17:51.41 4.315 06:12:58 Died
964 The Firm - TX 0338-AU17-WWC Tuchus BB H 5 14:18:03.41 4.313 06:13:10 Died
965 Casale/Miner - CA 1747-AU17-VG BBWF H 5 14:18:10.72 4.312 06:13:15 Died
966 King Rps Loft - CA 2547-AU17-SFR BB C 4 14:18:14.91 4.311 06:13:21 Yes
967 Apollo Loft 2 - IL 2685-AU17-APLO DC H 4 14:22:17.03 4.269 06:17:22 Yes
968 King Rps Loft - CA 2549-AU17-SFR BB C 5 14:22:43.22 4.264 06:17:51 Yes
968 Charlie Barbiere - NJ 1949-IF17-BSC BB H 5 14:22:47.81 4.264 06:17:51 Yes
970 Duffy's Loft - TX 9787-AU17-FOYS BC H 5 14:23:08.56 4.260 06:18:14 Died
970 Baptista - IL 3085-AU17-FOYS BB H 5 14:23:11.50 4.260 06:18:14 Yes
972 French Camp Connection - CA 71981-AU17-MAN BB C 6 14:23:37.55 4.255 06:18:43 Yes
972 Y Mtn Loft - TN 0161-AU17-ARPU BB H 8 14:23:40.20 4.255 06:18:43 Died
974 - 0418-AU17-BLKM 4 14:24:07.77 4.250 06:19:13
974 Elton Dinga - TX 12148-AU17-AA BB H 45 14:24:09.33 4.250 06:19:13 Yes
976 Sonder Loft - CA 21715-AU17-JEDD BC H 4 14:24:38.30 4.245 06:19:42 Yes
977 Black Magic Loft - TX 0471-AU17-BLKM BB C 5 14:24:39.75 4.244 06:19:48 Yes
978 Cajun Express Loft - LA 10966-AU17-AA BBSP H 6 14:25:00.45 4.241 06:20:05 Died
978 Duffy's Loft - TX 9792-AU17-FOYS BB H 6 14:25:02.42 4.241 06:20:05 Yes
980 Vick Corso - LA 1313-AU17-CRSO BC C 8 14:25:24.83 4.237 06:20:29 Yes
981 English Syndicate - UK 12525-GB17-D BC H 9 14:47:50.61 4.020 06:42:54 Yes
982 English Syndicate - UK 12526-GB17-D BC H 10 14:47:54.39 4.019 06:43:01 Yes
983 Floating Feather Loft - TX 1346-AU17-CVL BB C 5 15:02:17.20 3.891 Yes
984 Sandstrom Brothers Loft - MN 0789-AU17-SBL BCPD H 9 15:06:10.60 3.858 Yes

There are 1003 bird records

Note: These Race Results are unofficial and subject to change until verified by the Race Committee and declared final.